createdAt,value
2018-12-01T10:23:13.734Z,36.43
2018-12-01T10:28:09.707Z,32.03
2018-12-01T10:33:05.918Z,52.63
2018-12-01T10:38:06.163Z,53.13
2018-12-01T10:43:00.669Z,33.40
2018-12-01T10:47:55.673Z,26.50
2018-12-01T10:52:51.556Z,26.20
2018-12-01T10:57:46.057Z,24.10
2018-12-01T11:02:46.660Z,29.33
2018-12-01T11:07:41.906Z,31.27
2018-12-01T11:12:36.524Z,29.33
2018-12-01T11:17:31.436Z,26.63
2018-12-01T11:22:26.310Z,26.63
2018-12-01T11:27:21.170Z,30.87
2018-12-01T11:32:16.387Z,29.23
2018-12-01T11:37:11.234Z,28.60
2018-12-01T11:47:13.705Z,29.17
2018-12-01T11:52:36.795Z,29.23
2018-12-01T11:57:40.020Z,29.33
2018-12-01T12:02:34.855Z,29.83
2018-12-01T12:07:41.670Z,29.90
2018-12-01T12:12:36.929Z,31.07
2018-12-01T12:17:31.852Z,30.67
2018-12-01T12:22:26.820Z,30.67
2018-12-01T12:27:21.738Z,31.73
2018-12-01T12:32:16.680Z,40.07
2018-12-01T12:37:13.952Z,33.13
2018-12-01T12:42:08.984Z,32.00
2018-12-01T12:47:03.888Z,33.07
2018-12-01T12:51:59.790Z,34.20
2018-12-01T12:56:54.631Z,31.83
2018-12-01T13:01:49.467Z,33.17
2018-12-01T13:06:44.483Z,34.40
2018-12-01T13:11:40.699Z,34.53
2018-12-01T13:16:35.536Z,33.47
2018-12-01T13:21:30.950Z,34.47
2018-12-01T13:26:25.839Z,31.53
2018-12-01T13:31:21.028Z,33.83
2018-12-01T13:36:16.216Z,32.33
2018-12-01T13:41:12.870Z,32.40
2018-12-01T13:46:17.078Z,33.37
2018-12-01T13:51:12.422Z,32.33
2018-12-01T13:56:07.597Z,33.30
2018-12-01T14:01:02.165Z,36.33
2018-12-01T14:05:57.125Z,34.83
2018-12-01T14:10:53.190Z,34.40
2018-12-01T14:15:48.339Z,33.00
2018-12-01T14:20:43.703Z,34.63
2018-12-01T14:25:39.448Z,34.67
2018-12-01T14:30:35.502Z,35.70
2018-12-01T14:35:32.593Z,35.03
2018-12-01T14:40:29.014Z,33.10
2018-12-01T14:45:24.240Z,34.33
2018-12-01T14:50:19.320Z,37.30
2018-12-01T14:55:16.553Z,35.20
2018-12-01T15:00:27.224Z,36.53
2018-12-01T15:05:23.244Z,34.63
2018-12-01T15:10:28.326Z,34.43
2018-12-01T15:15:26.536Z,36.50
2018-12-01T15:20:23.116Z,38.70
2018-12-01T15:25:19.349Z,36.17
2018-12-01T15:30:19.554Z,37.50
2018-12-01T15:35:14.972Z,37.90
2018-12-01T15:40:14.484Z,38.17
2018-12-01T15:45:11.569Z,39.30
2018-12-01T15:50:11.906Z,41.70
2018-12-01T15:55:09.461Z,36.97
2018-12-01T16:00:05.644Z,37.83
2018-12-01T16:05:00.976Z,37.37
2018-12-01T16:09:59.023Z,37.97
2018-12-01T16:14:53.948Z,36.90
2018-12-01T16:19:48.597Z,36.73
2018-12-01T16:24:47.385Z,36.90
2018-12-01T16:29:55.896Z,36.97
2018-12-01T16:34:50.826Z,36.37
2018-12-01T16:39:47.157Z,36.00
2018-12-01T16:44:43.571Z,36.37
2018-12-01T16:49:38.409Z,37.37
2018-12-01T16:54:38.720Z,35.23
2018-12-01T16:59:34.895Z,35.07
2018-12-01T17:04:39.169Z,38.97
2018-12-01T17:09:35.507Z,38.47
2018-12-01T17:14:31.212Z,34.40
2018-12-01T17:19:26.124Z,35.17
2018-12-01T17:24:21.272Z,36.77
2018-12-01T17:29:16.681Z,38.53
2018-12-01T17:34:12.663Z,37.07
2018-12-01T17:39:10.830Z,37.10
2018-12-01T17:44:07.631Z,36.57
2018-12-01T17:49:03.576Z,36.07
2018-12-01T17:54:03.335Z,33.30
2018-12-01T17:58:59.464Z,34.70
2018-12-01T18:03:55.574Z,32.67
2018-12-01T18:08:50.494Z,33.10
2018-12-01T18:13:46.084Z,32.27
2018-12-01T18:18:40.999Z,32.33
2018-12-01T18:23:36.236Z,35.03
2018-12-01T18:28:35.781Z,33.73
2018-12-01T18:33:35.538Z,32.30
2018-12-01T18:38:30.585Z,33.10
2018-12-01T18:43:25.458Z,32.40
2018-12-01T18:48:20.388Z,31.50
2018-12-01T18:53:15.719Z,33.57
2018-12-01T18:58:11.056Z,32.47
2018-12-01T19:03:15.547Z,33.27
2018-12-01T19:08:10.624Z,33.40
2018-12-01T19:13:06.853Z,32.20
2018-12-01T19:18:02.951Z,33.90
2018-12-01T19:22:57.585Z,30.73
2018-12-01T19:27:54.212Z,29.53
2018-12-01T19:32:51.402Z,33.67
2018-12-01T19:38:03.522Z,32.17
2018-12-01T19:42:59.815Z,30.27
2018-12-01T19:47:54.899Z,31.93
2018-12-01T19:52:49.635Z,32.80
2018-12-01T19:57:44.736Z,31.33
2018-12-01T20:02:39.368Z,32.17
2018-12-01T20:07:37.341Z,31.33
2018-12-01T20:12:32.810Z,30.30
2018-12-01T20:17:27.853Z,29.67
2018-12-01T20:22:22.976Z,30.30
2018-12-01T20:27:17.604Z,30.40
2018-12-01T20:32:12.309Z,29.30
2018-12-01T20:37:10.784Z,28.17
2018-12-01T20:42:05.966Z,25.97
2018-12-01T20:47:00.738Z,26.93
2018-12-01T20:51:55.630Z,27.23
2018-12-01T20:56:51.637Z,28.23
2018-12-01T21:01:46.978Z,29.00
2018-12-01T21:06:43.270Z,27.33
2018-12-01T21:11:37.774Z,23.97
2018-12-01T21:16:33.058Z,24.13
2018-12-01T21:21:27.999Z,23.97
2018-12-01T21:26:22.606Z,23.17
2018-12-01T21:31:17.209Z,22.60
2018-12-01T21:36:12.291Z,25.53
2018-12-01T21:41:07.630Z,22.70
2018-12-01T21:46:02.700Z,23.63
2018-12-01T21:50:58.558Z,24.57
2018-12-01T21:55:53.608Z,24.77
2018-12-01T22:00:53.495Z,24.77
2018-12-01T22:06:00.576Z,20.77
2018-12-01T22:10:59.218Z,24.57
2018-12-01T22:15:54.722Z,25.57
2018-12-01T22:20:49.385Z,23.37
2018-12-01T22:25:45.029Z,23.70
2018-12-01T22:30:41.054Z,22.40
2018-12-01T22:35:36.826Z,22.23
2018-12-01T22:40:34.753Z,22.27
2018-12-01T22:45:30.388Z,20.73
2018-12-01T22:50:25.228Z,20.73
2018-12-01T22:55:25.335Z,19.87
2018-12-01T23:00:24.914Z,19.30
2018-12-01T23:05:19.745Z,18.73
2018-12-01T23:10:21.795Z,18.77
2018-12-01T23:15:17.883Z,18.03
2018-12-01T23:20:17.886Z,17.50
2018-12-01T23:25:13.464Z,17.60
2018-12-01T23:30:16.594Z,16.90
2018-12-01T23:35:11.276Z,15.27
2018-12-01T23:40:08.228Z,13.60
2018-12-01T23:45:03.360Z,15.13
2018-12-01T23:49:58.275Z,16.03
2018-12-01T23:54:54.624Z,14.30
2018-12-01T23:59:49.427Z,14.83
